Terminal Aerodrome Forecast
Issued by NWS Sioux Falls, SD

Home | Current Version | Previous Version | Text Only | Print | Product List | Glossary Off
Versions: 1 2 3 4 5 6 7 8 9 10 11 12 13 14

000
FTUS43 KFSD 302320
TAFHON
TAF
KHON 302320Z 0100/0124 16010KT P6SM SKC
     FM010600 24007KT P6SM SCT060 OVC090
      TEMPO 0107/0109 P6SM -SHRA BKN060
     FM010900 30006KT P6SM SKC
     FM011300 35009KT P6SM SKC=

USA.gov is the U.S. government's official web portal to all federal, state and local government web resources and services.